Anchorage, AK (99516)

11:23 PM AKST on December 05, 2016 (GMT -0900)
APRSWXNET | | Change Station

Elev 2194 ft 61.10 °N, 149.69 °W | Updated 30 minutes ago

Overcast
Overcast
23.0 °F
Feels Like 16 °F
N
6.0
Wind Variable Wind from South
Gusts 23.0 mph

Today
High -- | Low -- °F
--% Chance of Precip.
Yesterday
High -- | Low -- °F
Precip. -- in
Pressure 30.28 in
Visibility 10.0 miles
Clouds Mostly Cloudy 5500 ft
Overcast 10000 ft
Windchill 16 °F
Dew Point 17.0 °F
Humidity 79%
Rainfall in
Snow Depth Not available.
9:53 AM 3:46 PM
Waxing Crescent, 39% visible
METAR PAMR 060753Z 04005KT 10SM BKN055 OVC100 M14/M18 A3027 RMK AO2 SLP254 T11391183
Pressure 30.28 in
Visibility 10.0 miles
Clouds Mostly Cloudy 5500 ft
Overcast 10000 ft
Windchill 16 °F
Dew Point 17.0 °F
Humidity 79%
Rainfall in
Snow Depth Not available.
9:53 AM 3:46 PM
Waxing Crescent, 39% visible
METAR PAMR 060753Z 04005KT 10SM BKN055 OVC100 M14/M18 A3027 RMK AO2 SLP254 T11391183

10-Day Weather Forecast

Almanac

Astronomy

Dec. 05, 2016 Rise Set
Actual Time
Civil Twilight
Nautical Twilight
Astronomical Twilight
Moon
Length of Visible Light
Length of Day
Tomorrow will be .
, % of the Moon is Illuminated

Today's Extremes

State Highs State Lows

Community

WunderPhotos

Upload Photos

1,955,935 photos uploaded!

WunderBlog® & News

Nearby

Air Quality

  Air Quality AQ Index Pollutant
Not available.

Snow Depth

Station Depth Elevation

Earthquake Activity

City Distance Mag. Time & Date
Minimum magnitude displayed is 2.5.

Coastal Water Temperatures

Place Temperature

Stations

Nearby Weather Stations

Station Location Temp. Windchill Dew Point Humidity Wind Precip. Elev Updated Type
                   

Watches & Warnings

There are currently no watches in effect.